< Typhoon 197716 1977 Season Typhoon 197718 >
Typhoon 197717 (IVY)
General InformationTrack Information on Google MapsDetailed Wind Information || Disaster Info.ResourceGoogle EarthGE AnimationAtom FeedGeoJSON
Detalied Best Track (Time Zone = UTC)
Year Month Day Hour Lat. Long. Pressure (hPa) Wind (kt) Class Image Chart
1977 10 18 00 7.0 148.0 1008 0 2 -- Chart
1977 10 18 06 7.7 147.3 1006 0 2 -- Chart
1977 10 18 12 8.6 146.5 1006 0 2 -- Chart
1977 10 18 18 9.5 145.8 1006 0 2 -- Chart
1977 10 19 00 10.5 145.5 1004 0 2 -- Chart
1977 10 19 06 11.4 145.3 1004 0 2 -- Chart
1977 10 19 12 12.5 145.4 1004 0 2 -- Chart
1977 10 19 18 13.3 145.7 1004 0 2 -- Chart
1977 10 20 00 14.0 146.0 1004 0 2 -- Chart
1977 10 20 06 14.5 146.4 1002 0 2 -- Chart
1977 10 20 12 15.1 147.1 1000 0 2 -- Chart
1977 10 20 18 15.7 147.4 1000 0 2 -- Chart
1977 10 21 00 16.0 147.4 998 0 2 -- Chart
1977 10 21 06 16.3 147.3 998 0 2 -- Chart
1977 10 21 12 16.8 147.1 998 0 2 -- Chart
1977 10 21 18 17.2 146.7 996 0 2 -- Chart
1977 10 22 00 17.5 145.8 990 0 2 -- Chart
1977 10 22 06 17.1 145.4 990 40 3 -- Chart
1977 10 22 12 16.8 145.8 985 40 3 -- Chart
1977 10 22 18 17.2 146.3 980 45 3 -- Chart
1977 10 23 00 17.6 146.6 980 50 4 -- Chart
1977 10 23 06 18.2 147.0 975 55 4 -- Chart
1977 10 23 12 19.3 147.8 970 60 4 -- Chart
1977 10 23 18 20.3 148.9 965 60 4 -- Chart
1977 10 24 00 21.0 150.3 965 65 5 -- Chart
1977 10 24 06 21.8 151.6 960 70 5 -- Chart
1977 10 24 12 22.9 152.7 955 70 5 -- Chart
1977 10 24 18 24.2 153.5 950 70 5 -- Chart
1977 10 25 00 25.2 154.0 950 80 5 -- Chart
1977 10 25 06 26.5 154.6 945 80 5 -- Chart
1977 10 25 12 27.3 155.2 940 80 5 -- Chart
1977 10 25 18 28.2 155.7 940 80 5 -- Chart
1977 10 26 00 29.3 156.4 945 75 5 -- Chart
1977 10 26 06 30.3 157.1 945 75 5 -- Chart
1977 10 26 12 31.6 158.2 950 75 5 -- Chart
1977 10 26 18 34.5 161.0 955 70 5 -- Chart
1977 10 27 00 38.7 165.2 965 50 4 -- Chart
1977 10 27 06 43.0 172.0 980 0 6 -- Chart
1977 10 27 12 46.0 178.1 984 0 6 -- Chart
1977 10 27 18 48.5 185.0 984 0 6 -- Chart
Japan Meteorological Agency Best Track Data | Correction Date : 1992-10-21
< Typhoon 197716 1977 Season Typhoon 197718 >

Help